createdAt,value
2018-12-27T00:00:52.763Z,79.20
2018-12-27T00:03:33.684Z,80.40
2018-12-27T00:06:14.026Z,79.30
2018-12-27T00:08:55.398Z,77.10
2018-12-27T00:11:38.814Z,80.40
2018-12-27T00:14:19.558Z,77.30
2018-12-27T00:17:00.318Z,79.60
2018-12-27T00:19:41.584Z,80.50
2018-12-27T00:22:22.123Z,80.60
2018-12-27T00:25:02.454Z,80.20
2018-12-27T00:27:43.178Z,80.40
2018-12-27T00:30:24.238Z,80.60
2018-12-27T00:33:04.564Z,80.30
2018-12-27T00:35:45.602Z,77.60
2018-12-27T00:38:26.612Z,78.30
2018-12-27T00:41:07.249Z,80.50
2018-12-27T00:43:47.920Z,80.70
2018-12-27T00:46:28.727Z,80.50
2018-12-27T00:49:09.864Z,80.50
2018-12-27T00:51:50.482Z,80.30
2018-12-27T00:54:31.302Z,80.10
2018-12-27T00:57:11.983Z,80.50
2018-12-27T00:59:52.718Z,80.40
2018-12-27T01:02:33.648Z,80.40
2018-12-27T01:05:14.162Z,80.10
2018-12-27T01:07:55.095Z,77.00
2018-12-27T01:10:34.282Z,79.40
2018-12-27T01:13:15.590Z,78.80
2018-12-27T01:15:56.462Z,80.50
2018-12-27T01:18:37.575Z,80.30
2018-12-27T01:21:18.362Z,80.20
2018-12-27T01:23:59.450Z,80.20
2018-12-27T01:26:40.411Z,79.00
2018-12-27T01:29:21.119Z,80.30
2018-12-27T01:32:02.006Z,79.60
2018-12-27T01:34:42.761Z,80.20
2018-12-27T01:37:23.545Z,80.20
2018-12-27T01:40:04.655Z,80.30
2018-12-27T01:42:45.202Z,80.20
2018-12-27T01:45:25.958Z,79.90
2018-12-27T01:48:06.999Z,79.90
2018-12-27T01:50:47.788Z,80.10
2018-12-27T01:53:28.647Z,79.80
2018-12-27T01:56:09.778Z,77.60
2018-12-27T01:58:50.709Z,80.20
2018-12-27T02:01:31.586Z,80.10
2018-12-27T02:04:12.459Z,80.00
2018-12-27T02:06:53.366Z,80.20
2018-12-27T02:09:34.005Z,80.30
2018-12-27T02:12:15.032Z,79.70
2018-12-27T02:14:55.731Z,80.50
2018-12-27T02:17:36.366Z,80.20
2018-12-27T02:20:16.858Z,80.40
2018-12-27T02:22:58.118Z,80.10
2018-12-27T02:25:38.574Z,78.10
2018-12-27T02:28:18.951Z,80.40
2018-12-27T02:30:59.916Z,77.30
2018-12-27T02:33:40.823Z,80.40
2018-12-27T02:36:21.602Z,80.30
2018-12-27T02:39:02.510Z,80.60
2018-12-27T02:41:43.246Z,79.10
2018-12-27T02:44:25.463Z,80.00
2018-12-27T02:47:05.926Z,80.50
2018-12-27T02:49:46.876Z,79.70
2018-12-27T02:52:27.557Z,80.80
2018-12-27T02:55:08.790Z,80.60
2018-12-27T02:57:49.126Z,80.50
2018-12-27T03:00:29.802Z,80.40
2018-12-27T03:03:10.414Z,80.20
2018-12-27T03:05:51.387Z,77.10
2018-12-27T03:08:32.435Z,80.40
2018-12-27T03:11:12.696Z,80.50
2018-12-27T03:13:53.779Z,80.40
2018-12-27T03:16:35.274Z,80.60
2018-12-27T03:19:15.633Z,78.80
2018-12-27T03:21:56.374Z,77.80
2018-12-27T03:24:37.362Z,80.40
2018-12-27T03:27:18.448Z,80.70
2018-12-27T03:29:59.393Z,80.80
2018-12-27T03:32:40.532Z,80.70
2018-12-27T03:35:21.031Z,77.70
2018-12-27T03:38:01.920Z,80.60
2018-12-27T03:40:42.306Z,80.50
2018-12-27T03:43:24.384Z,80.40
2018-12-27T03:46:04.787Z,80.50
2018-12-27T03:48:45.883Z,80.50
2018-12-27T03:51:26.961Z,80.60
2018-12-27T03:54:08.099Z,80.60
2018-12-27T03:56:48.738Z,80.60
2018-12-27T03:59:29.464Z,80.30
2018-12-27T04:02:10.014Z,80.10
2018-12-27T04:04:51.140Z,79.00
2018-12-27T04:07:31.590Z,80.30
2018-12-27T04:10:12.338Z,80.30
2018-12-27T04:12:53.204Z,80.30
2018-12-27T04:15:34.083Z,79.50
2018-12-27T04:18:14.693Z,80.40
2018-12-27T04:20:55.411Z,80.30
2018-12-27T04:23:36.382Z,80.60
2018-12-27T04:26:17.386Z,81.30
2018-12-27T04:28:58.362Z,80.30
2018-12-27T04:31:38.967Z,81.00
2018-12-27T04:34:19.613Z,80.30
2018-12-27T04:37:00.521Z,80.30
2018-12-27T04:39:43.230Z,77.70
2018-12-27T04:42:24.026Z,80.70
2018-12-27T04:45:04.801Z,80.60
2018-12-27T04:47:45.771Z,81.00
2018-12-27T04:50:26.705Z,81.00
2018-12-27T04:53:07.385Z,81.00
2018-12-27T04:55:48.563Z,80.10
2018-12-27T04:58:29.824Z,81.10
2018-12-27T05:01:10.414Z,81.30
2018-12-27T05:03:51.202Z,80.90
2018-12-27T05:06:32.061Z,81.10
2018-12-27T05:09:12.990Z,81.40
2018-12-27T05:11:54.024Z,81.10
2018-12-27T05:14:34.858Z,81.10
2018-12-27T05:17:15.596Z,81.00
2018-12-27T05:19:56.743Z,80.20
2018-12-27T05:22:37.918Z,81.20
2018-12-27T05:25:18.836Z,81.20
2018-12-27T05:27:59.534Z,81.20
2018-12-27T05:30:40.822Z,81.20
2018-12-27T05:33:21.867Z,80.70
2018-12-27T05:36:02.250Z,81.30
2018-12-27T05:38:42.905Z,81.10
2018-12-27T05:41:24.065Z,80.60
2018-12-27T05:44:03.113Z,81.30
2018-12-27T05:46:42.150Z,81.40
2018-12-27T05:49:30.109Z,80.40
2018-12-27T05:52:11.326Z,80.80
2018-12-27T05:54:51.642Z,78.40
2018-12-27T05:57:32.369Z,81.40
2018-12-27T06:00:13.110Z,78.30
2018-12-27T06:02:53.879Z,81.60
2018-12-27T06:05:34.474Z,81.40
2018-12-27T06:08:15.275Z,81.40
2018-12-27T06:10:56.010Z,81.70
2018-12-27T06:13:37.074Z,81.60
2018-12-27T06:16:16.134Z,81.80
2018-12-27T06:18:56.827Z,81.80
2018-12-27T06:21:37.682Z,81.80
2018-12-27T06:24:18.984Z,82.00
2018-12-27T06:26:59.640Z,81.40
2018-12-27T06:29:40.751Z,81.80
2018-12-27T06:32:21.247Z,81.60
2018-12-27T06:35:02.301Z,78.80
2018-12-27T06:37:43.119Z,82.10
2018-12-27T06:40:24.129Z,82.00
2018-12-27T06:43:04.716Z,81.20
2018-12-27T06:45:45.934Z,81.60
2018-12-27T06:48:26.354Z,82.00
2018-12-27T06:51:07.198Z,81.70
2018-12-27T06:53:48.357Z,82.10
2018-12-27T06:56:29.498Z,82.20
2018-12-27T06:59:10.114Z,82.20
2018-12-27T07:01:51.359Z,82.00
2018-12-27T07:04:31.646Z,82.10
2018-12-27T07:07:12.547Z,82.00
2018-12-27T07:09:53.030Z,82.30
2018-12-27T07:12:34.043Z,82.20
2018-12-27T07:15:15.271Z,82.40
2018-12-27T07:17:56.331Z,82.10
2018-12-27T07:20:36.924Z,82.60
2018-12-27T07:23:17.846Z,82.30
2018-12-27T07:25:58.231Z,82.50
2018-12-27T07:28:39.101Z,82.00
2018-12-27T07:31:19.874Z,82.10
2018-12-27T07:34:00.810Z,82.20
2018-12-27T07:36:41.592Z,82.10
2018-12-27T07:39:22.266Z,81.90
2018-12-27T07:42:02.688Z,82.90
2018-12-27T07:44:43.791Z,82.20
2018-12-27T07:47:24.326Z,82.60
2018-12-27T07:50:05.113Z,82.50
2018-12-27T07:52:45.953Z,82.70
2018-12-27T07:55:26.915Z,79.50
2018-12-27T07:58:07.279Z,82.00
2018-12-27T08:00:47.959Z,82.60
2018-12-27T08:03:28.974Z,82.40
2018-12-27T08:06:08.050Z,82.50
2018-12-27T08:08:56.118Z,82.10
2018-12-27T08:11:37.223Z,82.40
2018-12-27T08:14:18.099Z,82.40
2018-12-27T08:16:59.034Z,82.00
2018-12-27T08:19:39.859Z,82.10
2018-12-27T08:22:20.838Z,82.00
2018-12-27T08:25:01.770Z,81.80
2018-12-27T08:27:42.769Z,81.80
2018-12-27T08:30:23.818Z,81.70
2018-12-27T08:33:04.641Z,78.10
2018-12-27T08:35:45.773Z,81.10
2018-12-27T08:38:26.795Z,80.90
2018-12-27T08:41:07.550Z,80.70
2018-12-27T08:43:48.677Z,80.70
2018-12-27T08:46:29.168Z,80.50
2018-12-27T08:49:10.203Z,80.30
2018-12-27T08:51:50.942Z,80.90
2018-12-27T08:54:32.299Z,80.70
2018-12-27T08:57:12.922Z,80.60
2018-12-27T08:59:54.273Z,77.20
2018-12-27T09:02:34.848Z,79.50
2018-12-27T09:05:18.843Z,80.10
2018-12-27T09:07:57.378Z,77.30
2018-12-27T09:10:38.382Z,80.20
2018-12-27T09:13:18.970Z,80.00
2018-12-27T09:15:59.948Z,80.00
2018-12-27T09:18:40.633Z,79.10
2018-12-27T09:21:21.320Z,76.80
2018-12-27T09:24:02.253Z,79.50
2018-12-27T09:26:43.414Z,79.70
2018-12-27T09:29:24.465Z,78.80
2018-12-27T09:32:05.437Z,79.50
2018-12-27T09:34:46.128Z,79.50
2018-12-27T09:37:27.187Z,79.30
2018-12-27T09:40:08.149Z,79.20
2018-12-27T09:42:48.950Z,79.50
2018-12-27T09:45:29.872Z,80.00
2018-12-27T09:48:11.005Z,79.40
2018-12-27T09:50:52.106Z,78.60
2018-12-27T09:53:33.182Z,79.50
2018-12-27T09:56:14.058Z,79.00
2018-12-27T09:58:55.589Z,78.40
2018-12-27T10:01:36.274Z,78.80
2018-12-27T10:04:17.330Z,79.20
2018-12-27T10:06:57.844Z,77.20
2018-12-27T10:09:38.138Z,78.60
2018-12-27T10:12:20.179Z,77.90
2018-12-27T10:15:01.534Z,78.30
2018-12-27T10:17:40.570Z,78.30
2018-12-27T10:20:21.934Z,78.30
2018-12-27T10:23:03.182Z,78.60
2018-12-27T10:25:50.790Z,78.50
2018-12-27T10:28:32.048Z,78.20
2018-12-27T10:31:12.649Z,77.90
2018-12-27T10:33:53.507Z,77.30
2018-12-27T10:36:34.186Z,77.20
2018-12-27T10:39:15.070Z,76.10
2018-12-27T10:41:55.964Z,76.90
2018-12-27T10:44:36.578Z,76.90
2018-12-27T10:47:17.441Z,77.40
2018-12-27T10:49:57.942Z,76.60
2018-12-27T10:52:38.866Z,77.00
2018-12-27T10:55:19.472Z,77.10
2018-12-27T10:58:00.853Z,77.30
2018-12-27T11:00:41.900Z,76.60
2018-12-27T11:03:22.797Z,74.60
2018-12-27T11:06:03.286Z,76.20
2018-12-27T11:08:43.718Z,73.20
2018-12-27T11:11:24.502Z,75.80
2018-12-27T11:14:05.206Z,74.80
2018-12-27T11:16:46.182Z,75.10
2018-12-27T11:19:27.150Z,74.90
2018-12-27T11:22:08.183Z,74.50
2018-12-27T11:24:49.222Z,74.50
2018-12-27T11:27:29.733Z,73.90
2018-12-27T11:30:10.884Z,74.50
2018-12-27T11:32:51.965Z,74.60
2018-12-27T11:35:32.510Z,74.00
2018-12-27T11:38:13.146Z,74.40
2018-12-27T11:40:54.193Z,74.60
2018-12-27T11:43:34.974Z,74.70
2018-12-27T11:46:15.750Z,74.20
2018-12-27T11:48:56.722Z,73.90
2018-12-27T11:51:37.758Z,74.30
2018-12-27T11:54:18.549Z,74.00
2018-12-27T11:56:59.187Z,73.30
2018-12-27T11:59:40.181Z,73.50
2018-12-27T12:02:21.469Z,71.20
2018-12-27T12:05:02.020Z,73.00
2018-12-27T12:07:43.114Z,73.00
2018-12-27T12:10:24.083Z,73.00
2018-12-27T12:13:03.115Z,73.10
2018-12-27T12:15:51.074Z,73.10
2018-12-27T12:18:32.105Z,72.60
2018-12-27T12:21:12.586Z,71.50
2018-12-27T12:23:53.084Z,71.50
2018-12-27T12:26:34.014Z,71.40
2018-12-27T12:29:14.300Z,69.00
2018-12-27T12:31:55.166Z,70.80
2018-12-27T12:34:36.031Z,69.50
2018-12-27T12:37:16.511Z,70.60
2018-12-27T12:39:57.175Z,68.10
2018-12-27T12:42:38.010Z,69.00
2018-12-27T12:45:19.086Z,68.70
2018-12-27T12:48:00.541Z,69.40
2018-12-27T12:50:42.486Z,70.00
2018-12-27T12:53:23.749Z,70.10
2018-12-27T12:56:04.445Z,70.40
2018-12-27T12:58:45.095Z,69.40
2018-12-27T13:01:24.411Z,69.70
2018-12-27T13:04:12.374Z,70.10
2018-12-27T13:06:53.342Z,69.80
2018-12-27T13:09:34.289Z,70.10
2018-12-27T13:12:14.987Z,67.90
2018-12-27T13:14:53.974Z,69.90
2018-12-27T13:17:34.946Z,69.90
2018-12-27T13:20:15.987Z,69.40
2018-12-27T13:22:57.188Z,69.40
2018-12-27T13:25:37.795Z,68.40
2018-12-27T13:28:19.243Z,69.30
2018-12-27T13:30:59.992Z,69.40
2018-12-27T13:33:40.738Z,68.90
2018-12-27T13:36:25.339Z,67.00
2018-12-27T13:39:04.132Z,69.50
2018-12-27T13:41:44.471Z,69.00
2018-12-27T13:44:23.477Z,68.10
2018-12-27T13:47:11.738Z,69.40
2018-12-27T13:49:52.175Z,68.00
2018-12-27T13:52:33.282Z,69.60
2018-12-27T13:55:14.407Z,69.40
2018-12-27T13:57:55.658Z,70.20
2018-12-27T14:00:36.368Z,69.70
2018-12-27T14:03:17.186Z,69.30
2018-12-27T14:05:58.349Z,70.30
2018-12-27T14:08:39.023Z,66.70
2018-12-27T14:11:19.904Z,70.00
2018-12-27T14:14:00.625Z,70.10
2018-12-27T14:16:41.551Z,70.00
2018-12-27T14:19:22.482Z,70.00
2018-12-27T14:22:03.530Z,70.00
2018-12-27T14:24:44.446Z,67.10
2018-12-27T14:27:25.575Z,69.60
2018-12-27T14:30:06.122Z,69.50
2018-12-27T14:32:47.005Z,68.90
2018-12-27T14:35:27.997Z,69.30
2018-12-27T14:38:09.039Z,67.70
2018-12-27T14:40:49.902Z,68.20
2018-12-27T14:43:30.601Z,69.10
2018-12-27T14:46:11.715Z,68.90
2018-12-27T14:48:52.650Z,68.20
2018-12-27T14:51:34.120Z,69.80
2018-12-27T14:54:14.743Z,68.20
2018-12-27T14:56:55.459Z,69.00
2018-12-27T14:59:36.413Z,69.20
2018-12-27T15:02:17.285Z,66.00
2018-12-27T15:04:58.474Z,69.50
2018-12-27T15:07:38.930Z,69.50
2018-12-27T15:10:20.026Z,69.30
2018-12-27T15:13:00.873Z,69.40
2018-12-27T15:15:41.874Z,69.10
2018-12-27T15:18:22.829Z,69.90
2018-12-27T15:21:03.869Z,69.70
2018-12-27T15:23:44.825Z,68.60
2018-12-27T15:26:25.508Z,70.10
2018-12-27T15:29:06.238Z,69.00
2018-12-27T15:31:47.724Z,70.30
2018-12-27T15:34:28.210Z,69.90
2018-12-27T15:37:08.877Z,69.80
2018-12-27T15:39:49.641Z,70.10
2018-12-27T15:42:30.630Z,70.30
2018-12-27T15:45:11.142Z,70.60
2018-12-27T15:47:51.840Z,70.90
2018-12-27T15:50:33.271Z,71.30
2018-12-27T15:53:13.962Z,70.80
2018-12-27T15:55:54.492Z,69.00
2018-12-27T15:58:35.622Z,71.60
2018-12-27T16:01:16.270Z,69.40
2018-12-27T16:03:57.146Z,71.00
2018-12-27T16:06:38.270Z,72.00
2018-12-27T16:09:18.986Z,72.00
2018-12-27T16:12:00.123Z,71.80
2018-12-27T16:14:44.495Z,72.30
2018-12-27T16:17:24.067Z,72.40
2018-12-27T16:20:05.161Z,72.00
2018-12-27T16:22:46.002Z,72.90
2018-12-27T16:25:26.716Z,72.50
2018-12-27T16:28:07.942Z,69.60
2018-12-27T16:30:49.179Z,72.60
2018-12-27T16:33:29.575Z,72.70
2018-12-27T16:36:10.454Z,72.80
2018-12-27T16:38:51.254Z,72.50
2018-12-27T16:41:32.294Z,72.80
2018-12-27T16:44:13.022Z,73.30
2018-12-27T16:46:53.983Z,72.30
2018-12-27T16:49:34.324Z,71.40
2018-12-27T16:52:15.389Z,73.50
2018-12-27T16:54:56.538Z,73.60
2018-12-27T16:57:37.291Z,73.60
2018-12-27T17:00:17.726Z,73.40
2018-12-27T17:02:58.752Z,73.60
2018-12-27T17:05:39.798Z,73.80
2018-12-27T17:08:20.700Z,73.20
2018-12-27T17:11:01.606Z,74.20
2018-12-27T17:13:42.865Z,73.30
2018-12-27T17:16:23.471Z,74.30
2018-12-27T17:19:04.476Z,74.10
2018-12-27T17:21:45.320Z,71.70
2018-12-27T17:24:26.423Z,74.50
2018-12-27T17:27:07.106Z,71.90
2018-12-27T17:29:47.874Z,74.40
2018-12-27T17:32:28.717Z,73.50
2018-12-27T17:35:10.228Z,71.90
2018-12-27T17:37:50.875Z,74.80
2018-12-27T17:40:31.910Z,74.20
2018-12-27T17:43:12.876Z,76.50
2018-12-27T17:45:54.080Z,75.70
2018-12-27T17:48:35.774Z,75.60
2018-12-27T17:51:16.615Z,75.30
2018-12-27T17:53:57.382Z,75.30
2018-12-27T17:56:38.426Z,75.20
2018-12-27T17:59:19.255Z,75.30
2018-12-27T18:02:00.587Z,75.50
2018-12-27T18:04:41.274Z,75.50
2018-12-27T18:07:22.218Z,74.40
2018-12-27T18:10:02.872Z,75.20
2018-12-27T18:12:43.782Z,74.30
2018-12-27T18:15:24.822Z,75.70
2018-12-27T18:18:05.986Z,75.40
2018-12-27T18:20:46.650Z,75.80
2018-12-27T18:23:27.728Z,75.60
2018-12-27T18:26:08.720Z,72.90
2018-12-27T18:28:49.730Z,76.00
2018-12-27T18:31:30.239Z,76.00
2018-12-27T18:34:11.103Z,75.70
2018-12-27T18:36:51.914Z,75.90
2018-12-27T18:39:32.849Z,75.90
2018-12-27T18:42:13.521Z,74.70
2018-12-27T18:44:54.698Z,75.80
2018-12-27T18:47:35.353Z,73.40
2018-12-27T18:50:16.031Z,75.60
2018-12-27T18:52:56.986Z,75.80
2018-12-27T18:55:40.247Z,75.50
2018-12-27T18:58:20.847Z,75.80
2018-12-27T19:01:01.774Z,75.60
2018-12-27T19:03:42.551Z,76.00
2018-12-27T19:06:23.453Z,74.10
2018-12-27T19:09:04.554Z,76.20
2018-12-27T19:11:44.993Z,75.30
2018-12-27T19:14:24.038Z,76.30
2018-12-27T19:17:04.753Z,75.70
2018-12-27T19:19:45.126Z,73.30
2018-12-27T19:22:26.272Z,76.50
2018-12-27T19:25:06.990Z,76.70
2018-12-27T19:27:48.129Z,76.80
2018-12-27T19:30:28.654Z,75.90
2018-12-27T19:33:18.974Z,76.80
2018-12-27T19:35:59.442Z,76.60
2018-12-27T19:38:40.518Z,76.90
2018-12-27T19:44:03.507Z,76.70
2018-12-27T19:46:44.230Z,76.50
2018-12-27T19:49:25.772Z,76.90
2018-12-27T19:52:06.664Z,76.70
2018-12-27T19:54:47.918Z,77.10
2018-12-27T19:57:28.609Z,76.10
2018-12-27T20:00:10.098Z,77.10
2018-12-27T20:02:51.315Z,75.60
2018-12-27T20:05:32.663Z,76.40
2018-12-27T20:08:13.479Z,77.00
2018-12-27T20:10:54.334Z,74.40
2018-12-27T20:13:35.804Z,76.90
2018-12-27T20:16:16.322Z,76.90
2018-12-27T20:18:57.132Z,74.20
2018-12-27T20:21:38.167Z,77.10
2018-12-27T20:24:19.122Z,74.40
2018-12-27T20:27:00.563Z,77.30
2018-12-27T20:29:40.914Z,77.40
2018-12-27T20:32:21.362Z,76.80
2018-12-27T20:35:02.134Z,76.50
2018-12-27T20:37:43.434Z,77.70
2018-12-27T20:40:24.150Z,77.70
2018-12-27T20:43:06.478Z,74.70
2018-12-27T20:45:47.562Z,77.40
2018-12-27T20:48:29.923Z,77.60
2018-12-27T20:51:10.638Z,77.50
2018-12-27T20:53:51.424Z,77.50
2018-12-27T20:56:32.668Z,77.30
2018-12-27T20:59:14.150Z,77.30
2018-12-27T21:01:54.771Z,77.30
2018-12-27T21:04:35.877Z,77.30
2018-12-27T21:07:16.662Z,74.40
2018-12-27T21:09:57.313Z,76.80
2018-12-27T21:12:38.048Z,76.90
2018-12-27T21:15:23.426Z,77.20
2018-12-27T21:18:04.014Z,76.30
2018-12-27T21:20:44.355Z,76.70
2018-12-27T21:23:25.035Z,76.60
2018-12-27T21:26:05.810Z,75.60
2018-12-27T21:28:44.899Z,76.30
2018-12-27T21:31:25.557Z,76.40
2018-12-27T21:34:06.276Z,76.40
2018-12-27T21:36:46.870Z,76.70
2018-12-27T21:39:27.630Z,71.00
2018-12-27T21:42:08.982Z,76.90
2018-12-27T21:44:49.602Z,77.20
2018-12-27T21:50:11.929Z,77.10
2018-12-27T21:52:40.728Z,77.80
2018-12-27T21:55:09.903Z,77.70
2018-12-27T21:57:38.906Z,77.90
2018-12-27T22:00:08.389Z,78.00
2018-12-27T22:02:37.117Z,78.10
2018-12-27T22:05:06.205Z,78.20
2018-12-27T22:07:36.665Z,78.20
2018-12-27T22:10:06.433Z,78.20
2018-12-27T22:12:35.660Z,78.50
2018-12-27T22:15:04.581Z,78.40
2018-12-27T22:17:33.317Z,78.40
2018-12-27T22:20:02.511Z,78.50
2018-12-27T22:22:31.641Z,77.60
2018-12-27T22:25:00.358Z,78.60
2018-12-27T22:27:29.133Z,78.40
2018-12-27T22:29:57.858Z,78.90
2018-12-27T22:32:26.587Z,78.40
2018-12-27T22:34:55.653Z,78.50
2018-12-27T22:37:24.410Z,78.60
2018-12-27T22:39:53.301Z,78.60
2018-12-27T22:42:22.426Z,78.50
2018-12-27T22:44:51.201Z,78.50
2018-12-27T22:47:20.087Z,78.40
2018-12-27T22:49:49.097Z,78.40
2018-12-27T22:52:17.923Z,78.50
2018-12-27T22:54:46.622Z,78.30
2018-12-27T22:57:15.874Z,78.10
2018-12-27T22:59:44.633Z,77.30
2018-12-27T23:02:13.487Z,78.20
2018-12-27T23:04:42.557Z,78.10
2018-12-27T23:07:15.361Z,78.00
2018-12-27T23:09:44.085Z,77.90
2018-12-27T23:12:13.814Z,78.10
2018-12-27T23:14:44.073Z,77.50
2018-12-27T23:17:12.893Z,77.80
2018-12-27T23:19:42.706Z,77.70
2018-12-27T23:22:11.430Z,77.70
2018-12-27T23:24:41.241Z,78.00
2018-12-27T23:27:10.281Z,78.00
2018-12-27T23:29:38.987Z,78.10
2018-12-27T23:32:07.693Z,78.10
2018-12-27T23:34:36.923Z,78.10
2018-12-27T23:37:05.630Z,78.20
2018-12-27T23:39:34.406Z,78.10
2018-12-27T23:42:03.113Z,78.20
2018-12-27T23:44:31.836Z,78.20
2018-12-27T23:47:00.784Z,78.10
2018-12-27T23:49:29.520Z,78.30
2018-12-27T23:51:58.355Z,78.20
2018-12-27T23:54:27.062Z,78.20
2018-12-27T23:56:55.869Z,77.90
2018-12-27T23:59:28.501Z,77.60
